createdAt,value
2018-10-21T00:02:31.534Z,47.98
2018-10-21T00:05:04.073Z,47.20
2018-10-21T00:07:35.814Z,47.17
2018-10-21T00:10:09.794Z,46.60
2018-10-21T00:12:41.653Z,43.45
2018-10-21T00:15:13.334Z,46.70
2018-10-21T00:17:45.262Z,42.98
2018-10-21T00:20:17.134Z,44.50
2018-10-21T00:22:49.392Z,48.48
2018-10-21T00:25:22.213Z,49.55
2018-10-21T00:27:53.974Z,47.80
2018-10-21T00:30:26.773Z,47.25
2018-10-21T00:33:00.208Z,46.98
2018-10-21T00:35:31.534Z,48.68
2018-10-21T00:38:04.473Z,46.98
2018-10-21T00:40:36.574Z,47.43
2018-10-21T00:43:08.714Z,48.73
2018-10-21T00:45:40.176Z,47.20
2018-10-21T00:48:11.653Z,48.85
2018-10-21T00:50:44.174Z,50.25
2018-10-21T00:53:16.894Z,51.48
2018-10-21T00:55:48.514Z,53.92
2018-10-21T00:58:21.134Z,52.27
2018-10-21T01:00:53.896Z,52.53
2018-10-21T01:03:26.233Z,51.60
2018-10-21T01:05:58.893Z,51.68
2018-10-21T01:08:31.333Z,49.73
2018-10-21T01:11:02.894Z,51.10
2018-10-21T01:13:34.894Z,48.92
2018-10-21T01:16:06.554Z,51.63
2018-10-21T01:18:38.856Z,50.28
2018-10-21T01:21:11.271Z,50.35
2018-10-21T01:23:43.393Z,50.75
2018-10-21T01:26:15.114Z,49.53
2018-10-21T01:28:46.733Z,52.00
2018-10-21T01:31:18.753Z,48.42
2018-10-21T01:33:49.794Z,47.85
2018-10-21T01:36:23.056Z,50.75
2018-10-21T01:38:55.067Z,49.63
2018-10-21T01:41:27.053Z,52.43
2018-10-21T01:43:59.082Z,49.10
2018-10-21T01:46:31.193Z,46.40
2018-10-21T01:49:03.694Z,49.18
2018-10-21T01:51:35.693Z,48.70
2018-10-21T01:54:08.134Z,46.98
2018-10-21T01:56:40.313Z,47.85
2018-10-21T01:59:12.154Z,49.27
2018-10-21T02:01:44.654Z,47.35
2018-10-21T02:04:18.054Z,50.35
2018-10-21T02:06:49.393Z,51.02
2018-10-21T02:09:21.939Z,49.60
2018-10-21T02:11:53.313Z,49.40
2018-10-21T02:14:25.234Z,51.50
2018-10-21T02:16:56.674Z,49.10
2018-10-21T02:19:29.239Z,55.88
2018-10-21T02:22:01.013Z,49.15
2018-10-21T02:24:33.434Z,51.35
2018-10-21T02:27:05.356Z,50.10
2018-10-21T02:29:37.253Z,50.58
2018-10-21T02:32:09.095Z,48.63
2018-10-21T02:34:41.334Z,52.53
2018-10-21T02:37:13.014Z,50.28
2018-10-21T02:39:45.295Z,49.77
2018-10-21T02:42:17.044Z,49.83
2018-10-21T02:44:49.394Z,51.73
2018-10-21T02:47:21.295Z,50.63
2018-10-21T02:49:54.474Z,50.75
2018-10-21T02:52:26.774Z,52.93
2018-10-21T02:54:59.033Z,49.33
2018-10-21T02:57:31.034Z,49.20
2018-10-21T03:00:02.574Z,50.80
2018-10-21T03:02:34.813Z,49.35
2018-10-21T03:05:07.616Z,50.50
2018-10-21T03:07:39.213Z,48.58
2018-10-21T03:10:11.754Z,48.50
2018-10-21T03:12:43.834Z,46.50
2018-10-21T03:15:15.724Z,48.00
2018-10-21T03:17:47.254Z,44.75
2018-10-21T03:20:19.455Z,45.40
2018-10-21T03:22:50.434Z,44.53
2018-10-21T03:25:22.394Z,45.90
2018-10-21T03:27:54.414Z,43.38
2018-10-21T03:30:26.735Z,42.48
2018-10-21T03:32:58.431Z,46.18
2018-10-21T03:35:30.416Z,44.50
2018-10-21T03:38:02.775Z,44.25
2018-10-21T03:40:35.614Z,45.12
2018-10-21T03:43:06.994Z,45.25
2018-10-21T03:45:39.255Z,42.98
2018-10-21T03:48:10.337Z,42.20
2018-10-21T03:50:42.574Z,43.33
2018-10-21T03:53:14.717Z,44.03
2018-10-21T03:55:47.214Z,43.60
2018-10-21T03:58:19.036Z,43.83
2018-10-21T04:00:51.095Z,42.50
2018-10-21T04:03:22.894Z,44.00
2018-10-21T04:05:55.355Z,44.73
2018-10-21T04:08:26.694Z,43.10
2018-10-21T04:10:58.713Z,42.90
2018-10-21T04:13:30.056Z,45.25
2018-10-21T04:16:01.913Z,45.83
2018-10-21T04:18:33.693Z,44.20
2018-10-21T04:21:05.794Z,45.12
2018-10-21T04:23:38.595Z,45.50
2018-10-21T04:26:09.976Z,46.40
2018-10-21T04:28:41.974Z,47.33
2018-10-21T04:31:14.396Z,47.25
2018-10-21T04:33:47.054Z,49.50
2018-10-21T04:36:22.213Z,48.87
2018-10-21T04:40:04.228Z,45.78
2018-10-21T04:42:36.574Z,45.60
2018-10-21T04:45:09.433Z,46.13
2018-10-21T04:47:41.255Z,47.53
2018-10-21T04:50:14.314Z,45.85
2018-10-21T04:52:47.074Z,46.83
2018-10-21T04:55:18.234Z,43.83
2018-10-21T04:57:49.755Z,45.08
2018-10-21T05:00:22.075Z,45.12
2018-10-21T05:02:54.374Z,43.38
2018-10-21T05:05:25.634Z,42.95
2018-10-21T05:07:57.155Z,42.88
2018-10-21T05:10:32.633Z,43.17
2018-10-21T05:13:05.435Z,42.13
2018-10-21T05:15:38.595Z,43.58
2018-10-21T05:18:11.574Z,42.45
2018-10-21T05:20:43.753Z,42.08
2018-10-21T05:23:16.034Z,43.92
2018-10-21T05:25:48.273Z,41.40
2018-10-21T05:28:20.257Z,42.40
2018-10-21T05:30:53.054Z,42.15
2018-10-21T05:33:25.474Z,42.17
2018-10-21T05:35:56.913Z,58.08
2018-10-21T05:38:29.476Z,45.00
2018-10-21T05:41:01.654Z,45.78
2018-10-21T05:43:33.595Z,45.20
2018-10-21T05:46:06.388Z,44.30
2018-10-21T05:48:37.814Z,49.45
2018-10-21T05:51:10.058Z,49.15
2018-10-21T05:53:41.314Z,49.70
2018-10-21T05:56:13.574Z,51.60
2018-10-21T05:58:44.934Z,48.90
2018-10-21T06:01:17.174Z,50.65
2018-10-21T06:03:48.654Z,49.50
2018-10-21T06:06:20.254Z,50.83
2018-10-21T06:08:51.695Z,48.42
2018-10-21T06:11:23.234Z,50.33
2018-10-21T06:13:55.034Z,48.60
2018-10-21T06:16:26.436Z,48.95
2018-10-21T06:19:02.236Z,49.35
2018-10-21T06:21:35.494Z,45.78
2018-10-21T06:24:06.595Z,48.73
2018-10-21T06:26:38.836Z,48.60
2018-10-21T06:29:10.554Z,48.17
2018-10-21T06:31:43.234Z,46.37
2018-10-21T06:34:15.195Z,55.98
2018-10-21T06:36:47.639Z,49.67
2018-10-21T06:39:19.835Z,50.65
2018-10-21T06:41:52.095Z,49.42
2018-10-21T06:44:23.296Z,49.27
2018-10-21T06:46:54.854Z,44.58
2018-10-21T06:49:27.043Z,42.88
2018-10-21T06:51:58.234Z,41.70
2018-10-21T06:54:30.535Z,44.05
2018-10-21T06:57:02.405Z,45.43
2018-10-21T06:59:34.974Z,47.08
2018-10-21T07:02:06.735Z,42.65
2018-10-21T07:04:38.486Z,45.20
2018-10-21T07:07:10.735Z,46.55
2018-10-21T07:09:42.915Z,43.87
2018-10-21T07:12:15.634Z,44.55
2018-10-21T07:14:47.254Z,44.25
2018-10-21T07:17:20.176Z,44.60
2018-10-21T07:19:52.215Z,43.70
2018-10-21T07:22:23.835Z,47.50
2018-10-21T07:24:55.200Z,46.60
2018-10-21T07:27:26.355Z,46.70
2018-10-21T07:29:58.014Z,43.42
2018-10-21T07:32:29.815Z,45.85
2018-10-21T07:35:01.197Z,44.08
2018-10-21T07:37:34.236Z,47.05
2018-10-21T07:40:05.967Z,46.35
2018-10-21T07:42:37.834Z,45.15
2018-10-21T07:45:10.755Z,47.30
2018-10-21T07:47:42.555Z,47.00
2018-10-21T07:50:14.934Z,44.13
2018-10-21T07:52:46.554Z,45.05
2018-10-21T07:55:19.567Z,44.35
2018-10-21T07:57:51.914Z,45.03
2018-10-21T08:00:23.636Z,44.75
2018-10-21T08:02:55.355Z,44.10
2018-10-21T08:05:37.314Z,46.70
2018-10-21T08:08:15.477Z,44.93
2018-10-21T08:10:48.016Z,40.63
2018-10-21T08:13:21.617Z,40.92
2018-10-21T08:15:53.239Z,42.93
2018-10-21T08:18:25.814Z,41.28
2018-10-21T08:20:57.234Z,41.35
2018-10-21T08:23:30.076Z,41.42
2018-10-21T08:26:01.595Z,42.27
2018-10-21T08:28:33.336Z,44.70
2018-10-21T08:31:04.934Z,42.60
2018-10-21T08:33:36.574Z,46.30
2018-10-21T08:36:08.584Z,43.87
2018-10-21T08:38:41.175Z,45.08
2018-10-21T08:41:13.654Z,46.68
2018-10-21T08:43:45.734Z,44.42
2018-10-21T08:46:18.635Z,48.02
2018-10-21T08:48:50.640Z,47.17
2018-10-21T08:51:21.914Z,44.73
2018-10-21T08:53:53.755Z,44.73
2018-10-21T08:56:26.016Z,46.37
2018-10-21T08:58:58.094Z,41.40
2018-10-21T09:01:29.934Z,41.98
2018-10-21T09:04:01.901Z,45.33
2018-10-21T09:06:33.633Z,45.15
2018-10-21T09:09:06.234Z,42.98
2018-10-21T09:11:38.453Z,43.78
2018-10-21T09:14:10.714Z,44.40
2018-10-21T09:16:42.578Z,44.55
2018-10-21T09:19:14.543Z,43.90
2018-10-21T09:21:47.299Z,45.08
2018-10-21T09:24:19.374Z,46.00
2018-10-21T09:26:51.454Z,43.83
2018-10-21T09:29:24.434Z,43.80
2018-10-21T09:31:56.314Z,44.38
2018-10-21T09:34:28.157Z,45.08
2018-10-21T09:37:00.380Z,44.58
2018-10-21T09:39:32.314Z,45.28
2018-10-21T09:42:05.124Z,46.60
2018-10-21T09:44:36.896Z,48.13
2018-10-21T09:47:09.698Z,46.23
2018-10-21T09:49:42.240Z,49.13
2018-10-21T09:52:14.664Z,48.42
2018-10-21T09:54:46.314Z,49.83
2018-10-21T09:57:19.214Z,47.80
2018-10-21T09:59:50.695Z,48.58
2018-10-21T10:02:27.695Z,49.48
2018-10-21T10:04:59.263Z,50.08
2018-10-21T10:07:31.815Z,46.40
2018-10-21T10:10:03.691Z,48.75
2018-10-21T10:12:35.734Z,48.98
2018-10-21T10:15:08.374Z,48.02
2018-10-21T10:17:40.620Z,48.58
2018-10-21T10:20:12.954Z,46.97
2018-10-21T10:22:44.735Z,49.60
2018-10-21T10:25:17.857Z,49.27
2018-10-21T10:27:49.095Z,48.78
2018-10-21T10:30:22.016Z,48.20
2018-10-21T10:32:54.113Z,50.53
2018-10-21T10:35:26.554Z,51.83
2018-10-21T10:38:00.306Z,53.28
2018-10-21T10:40:33.074Z,52.40
2018-10-21T10:43:05.349Z,50.07
2018-10-21T10:45:37.097Z,50.40
2018-10-21T10:48:09.015Z,47.98
2018-10-21T10:50:40.633Z,49.20
2018-10-21T10:53:13.434Z,52.43
2018-10-21T10:55:48.032Z,50.70
2018-10-21T10:58:20.533Z,48.90
2018-10-21T11:00:54.605Z,49.03
2018-10-21T11:03:26.098Z,48.63
2018-10-21T11:05:58.913Z,48.63
2018-10-21T11:08:31.353Z,49.43
2018-10-21T11:11:02.895Z,48.67
2018-10-21T11:13:35.514Z,48.27
2018-10-21T11:16:09.347Z,47.97
2018-10-21T11:18:41.694Z,50.40
2018-10-21T11:21:13.714Z,48.27
2018-10-21T11:23:45.795Z,44.90
2018-10-21T11:26:17.753Z,50.00
2018-10-21T11:28:49.274Z,48.57
2018-10-21T11:31:21.135Z,47.80
2018-10-21T11:33:53.273Z,45.50
2018-10-21T11:36:25.755Z,48.80
2018-10-21T11:38:57.574Z,48.83
2018-10-21T11:41:28.613Z,48.13
2018-10-21T11:44:01.334Z,48.43
2018-10-21T11:46:33.619Z,49.07
2018-10-21T11:49:06.092Z,47.77
2018-10-21T11:51:38.776Z,48.80
2018-10-21T11:54:10.375Z,48.67
2018-10-21T11:56:43.454Z,49.70
2018-10-21T11:59:15.499Z,47.33
2018-10-21T12:01:47.054Z,50.40
2018-10-21T12:04:19.875Z,48.80
2018-10-21T12:06:51.895Z,50.07
2018-10-21T12:09:24.174Z,49.23
2018-10-21T12:11:56.154Z,49.30
2018-10-21T12:14:28.355Z,49.50
2018-10-21T12:17:00.814Z,49.60
2018-10-21T12:19:32.614Z,49.00
2018-10-21T12:22:04.685Z,51.80
2018-10-21T12:24:36.514Z,50.97
2018-10-21T12:27:09.073Z,51.90
2018-10-21T12:29:41.573Z,49.47
2018-10-21T12:32:14.133Z,51.00
2018-10-21T12:34:46.374Z,49.70
2018-10-21T12:37:18.114Z,51.53
2018-10-21T12:39:49.633Z,50.07
2018-10-21T12:42:21.875Z,49.90
2018-10-21T12:44:53.473Z,50.40
2018-10-21T12:47:25.836Z,49.87
2018-10-21T12:49:58.873Z,50.90
2018-10-21T12:52:31.333Z,52.27
2018-10-21T12:55:03.304Z,49.70
2018-10-21T12:57:36.675Z,51.03
2018-10-21T13:00:08.595Z,49.50
2018-10-21T13:02:41.137Z,50.77
2018-10-21T13:05:13.014Z,52.97
2018-10-21T13:07:44.754Z,47.50
2018-10-21T13:10:17.467Z,49.07
2018-10-21T13:12:49.527Z,48.87
2018-10-21T13:15:21.653Z,52.03
2018-10-21T13:17:54.434Z,48.53
2018-10-21T13:20:26.195Z,48.23
2018-10-21T13:22:59.114Z,50.03
2018-10-21T13:25:31.895Z,47.87
2018-10-21T13:28:03.687Z,45.80
2018-10-21T13:30:36.173Z,46.90
2018-10-21T13:33:07.774Z,46.13
2018-10-21T13:35:39.600Z,46.60
2018-10-21T13:38:11.676Z,46.10
2018-10-21T13:40:43.795Z,43.13
2018-10-21T13:43:15.038Z,45.37
2018-10-21T13:45:47.411Z,42.23
2018-10-21T13:48:19.213Z,41.37
2018-10-21T13:50:50.974Z,41.43
2018-10-21T13:53:23.032Z,41.43
2018-10-21T13:55:54.895Z,41.10
2018-10-21T13:58:27.395Z,41.47
2018-10-21T14:00:59.299Z,39.83
2018-10-21T14:03:31.994Z,40.47
2018-10-21T14:06:04.494Z,39.63
2018-10-21T14:08:36.655Z,39.33
2018-10-21T14:11:08.254Z,37.83
2018-10-21T14:13:40.335Z,38.53
2018-10-21T14:16:13.074Z,36.93
2018-10-21T14:18:45.286Z,37.70
2018-10-21T14:21:16.640Z,37.47
2018-10-21T14:23:49.174Z,37.40
2018-10-21T14:26:20.913Z,35.93
2018-10-21T14:28:52.974Z,36.70
2018-10-21T14:31:25.814Z,33.63
2018-10-21T14:33:57.857Z,36.77
2018-10-21T14:36:29.715Z,34.80
2018-10-21T14:39:01.355Z,33.13
2018-10-21T14:41:33.555Z,34.57
2018-10-21T14:44:04.954Z,31.63
2018-10-21T14:46:38.474Z,32.70
2018-10-21T14:49:11.595Z,33.40
2018-10-21T14:51:43.374Z,34.67
2018-10-21T14:54:15.603Z,31.50
2018-10-21T14:56:47.614Z,29.87
2018-10-21T14:59:19.194Z,30.50
2018-10-21T15:01:50.854Z,29.40
2018-10-21T15:04:23.194Z,31.13
2018-10-21T15:06:55.295Z,29.13
2018-10-21T15:09:26.911Z,29.40
2018-10-21T15:11:58.718Z,29.73
2018-10-21T15:14:31.180Z,31.67
2018-10-21T15:17:03.515Z,29.93
2018-10-21T15:19:35.473Z,29.10
2018-10-21T15:22:07.528Z,27.13
2018-10-21T15:24:39.517Z,25.83
2018-10-21T15:27:11.095Z,20.53
2018-10-21T15:29:43.894Z,17.93
2018-10-21T15:32:16.904Z,18.27
2018-10-21T15:34:49.374Z,16.90
2018-10-21T15:37:21.555Z,14.90
2018-10-21T15:39:53.856Z,14.90
2018-10-21T15:42:25.300Z,15.80
2018-10-21T15:44:57.578Z,15.43
2018-10-21T15:47:29.635Z,16.20
2018-10-21T15:50:01.842Z,16.77
2018-10-21T15:52:34.915Z,15.27
2018-10-21T15:55:06.573Z,14.83
2018-10-21T15:57:38.434Z,16.57
2018-10-21T16:00:12.256Z,15.43
2018-10-21T16:02:44.470Z,15.50
2018-10-21T16:05:17.355Z,16.37
2018-10-21T16:07:49.154Z,16.03
2018-10-21T16:10:20.795Z,52.70
2018-10-21T16:12:53.014Z,25.90
2018-10-21T16:15:24.616Z,17.27
2018-10-21T16:17:56.654Z,16.57
2018-10-21T16:20:28.941Z,12.73
2018-10-21T16:23:01.775Z,12.97
2018-10-21T16:25:34.195Z,11.17
2018-10-21T16:28:06.343Z,12.20
2018-10-21T16:30:38.755Z,11.80
2018-10-21T16:33:10.556Z,11.77
2018-10-21T16:35:42.475Z,11.60
2018-10-21T16:38:14.589Z,14.40
2018-10-21T16:40:47.053Z,12.77
2018-10-21T16:43:19.096Z,11.67
2018-10-21T16:45:50.734Z,10.73
2018-10-21T16:48:23.495Z,10.93
2018-10-21T16:50:54.877Z,11.13
2018-10-21T16:53:26.569Z,11.00
2018-10-21T16:55:58.274Z,10.90
2018-10-21T16:58:30.453Z,10.43
2018-10-21T17:01:01.953Z,12.63
2018-10-21T17:03:34.086Z,10.58
2018-10-21T17:06:05.914Z,10.80
2018-10-21T17:08:38.653Z,10.80
2018-10-21T17:11:10.784Z,12.43
2018-10-21T17:13:42.978Z,15.20
2018-10-21T17:16:15.446Z,12.90
2018-10-21T17:18:46.598Z,12.55
2018-10-21T17:21:18.494Z,13.15
2018-10-21T17:23:50.933Z,12.90
2018-10-21T17:26:26.036Z,12.58
2018-10-21T17:28:58.574Z,12.00
2018-10-21T17:31:30.519Z,12.88
2018-10-21T17:34:03.049Z,12.40
2018-10-21T17:36:34.514Z,13.72
2018-10-21T17:39:07.613Z,13.20
2018-10-21T17:41:38.856Z,11.90
2018-10-21T17:44:11.853Z,13.35
2018-10-21T17:46:44.191Z,13.50
2018-10-21T17:49:15.869Z,14.18
2018-10-21T17:51:47.613Z,13.72
2018-10-21T17:54:19.695Z,13.80
2018-10-21T17:56:55.534Z,12.95
2018-10-21T17:59:27.515Z,15.13
2018-10-21T18:02:00.234Z,15.30
2018-10-21T18:04:32.382Z,15.32
2018-10-21T18:07:04.138Z,14.75
2018-10-21T18:09:36.655Z,14.55
2018-10-21T18:12:08.273Z,15.05
2018-10-21T18:14:40.619Z,14.10
2018-10-21T18:17:12.415Z,13.32
2018-10-21T18:19:45.014Z,14.30
2018-10-21T18:22:17.093Z,13.03
2018-10-21T18:24:48.834Z,13.10
2018-10-21T18:27:21.253Z,13.78
2018-10-21T18:29:54.395Z,14.28
2018-10-21T18:32:26.598Z,13.68
2018-10-21T18:34:58.913Z,14.15
2018-10-21T18:37:31.434Z,14.85
2018-10-21T18:40:04.062Z,14.80
2018-10-21T18:42:35.705Z,15.55
2018-10-21T18:45:09.474Z,14.78
2018-10-21T18:47:41.817Z,13.28
2018-10-21T18:50:14.233Z,16.80
2018-10-21T18:52:46.796Z,13.30
2018-10-21T18:55:18.168Z,13.60
2018-10-21T18:57:50.516Z,14.18
2018-10-21T19:00:23.133Z,13.65
2018-10-21T19:02:54.914Z,14.00
2018-10-21T19:05:26.274Z,13.85
2018-10-21T19:07:58.014Z,15.88
2018-10-21T19:10:30.637Z,14.80
2018-10-21T19:13:02.567Z,15.05
2018-10-21T19:15:35.153Z,17.10
2018-10-21T19:18:07.334Z,14.73
2018-10-21T19:20:39.074Z,15.45
2018-10-21T19:23:12.034Z,14.93
2018-10-21T19:25:44.054Z,14.53
2018-10-21T19:28:16.345Z,15.08
2018-10-21T19:30:48.674Z,16.90
2018-10-21T19:33:20.373Z,14.18
2018-10-21T19:35:51.795Z,14.35
2018-10-21T19:38:24.154Z,15.85
2018-10-21T19:40:56.495Z,15.95
2018-10-21T19:43:29.483Z,15.45
2018-10-21T19:46:01.351Z,15.75
2018-10-21T19:48:33.735Z,16.82
2018-10-21T19:51:06.254Z,15.05
2018-10-21T19:53:38.713Z,16.17
2018-10-21T19:56:10.936Z,16.50
2018-10-21T19:58:43.226Z,24.98
2018-10-21T20:01:14.661Z,16.30
2018-10-21T20:03:46.574Z,15.40
2018-10-21T20:06:18.554Z,14.25
2018-10-21T20:08:50.514Z,13.05
2018-10-21T20:11:22.075Z,13.90
2018-10-21T20:13:54.713Z,14.10
2018-10-21T20:16:26.474Z,14.50
2018-10-21T20:18:58.834Z,14.05
2018-10-21T20:21:30.333Z,14.13
2018-10-21T20:24:03.034Z,14.43
2018-10-21T20:26:35.254Z,14.68
2018-10-21T20:29:07.702Z,14.30
2018-10-21T20:31:39.354Z,14.87
2018-10-21T20:34:11.277Z,14.95
2018-10-21T20:36:42.714Z,14.50
2018-10-21T20:39:14.154Z,15.43
2018-10-21T20:41:45.255Z,14.78
2018-10-21T20:44:17.474Z,13.68
2018-10-21T20:46:49.814Z,14.83
2018-10-21T20:49:22.346Z,14.60
2018-10-21T20:51:54.335Z,15.28
2018-10-21T20:54:29.954Z,15.90
2018-10-21T20:57:05.574Z,15.40
2018-10-21T20:59:38.134Z,15.05
2018-10-21T21:02:11.514Z,15.18
2018-10-21T21:04:43.674Z,18.05
2018-10-21T21:07:15.374Z,14.70
2018-10-21T21:09:48.533Z,14.43
2018-10-21T21:12:20.195Z,14.07
2018-10-21T21:14:52.574Z,13.90
2018-10-21T21:17:22.395Z,15.68
2018-10-21T21:19:54.394Z,15.43
2018-10-21T21:22:26.594Z,15.48
2018-10-21T21:24:59.554Z,16.73
2018-10-21T21:27:31.013Z,17.42
2018-10-21T21:30:03.601Z,18.40
2018-10-21T21:32:36.314Z,19.50
2018-10-21T21:35:08.718Z,15.80
2018-10-21T21:37:40.654Z,14.38
2018-10-21T21:40:12.374Z,17.52
2018-10-21T21:42:44.534Z,17.62
2018-10-21T21:45:16.495Z,15.20
2018-10-21T21:47:48.434Z,15.40
2018-10-21T21:50:20.477Z,15.95
2018-10-21T21:52:52.954Z,15.53
2018-10-21T21:55:25.459Z,14.00
2018-10-21T21:57:57.736Z,14.43
2018-10-21T22:00:29.942Z,15.10
2018-10-21T22:03:01.984Z,14.45
2018-10-21T22:05:33.444Z,15.43
2018-10-21T22:08:04.246Z,13.80
2018-10-21T22:10:35.988Z,13.88
2018-10-21T22:13:07.848Z,15.23
2018-10-21T22:15:40.149Z,14.33
2018-10-21T22:18:12.245Z,14.25
2018-10-21T22:20:44.532Z,14.95
2018-10-21T22:23:16.135Z,14.28
2018-10-21T22:25:48.885Z,14.58
2018-10-21T22:28:20.258Z,13.48
2018-10-21T22:30:51.839Z,13.55
2018-10-21T22:33:23.539Z,13.88
2018-10-21T22:35:55.913Z,14.65
2018-10-21T22:38:26.981Z,14.50
2018-10-21T22:40:59.586Z,14.63
2018-10-21T22:43:31.665Z,15.32
2018-10-21T22:46:04.463Z,14.45
2018-10-21T22:48:36.447Z,16.10
2018-10-21T22:51:08.988Z,15.75
2018-10-21T22:53:40.968Z,14.30
2018-10-21T22:56:13.796Z,15.75
2018-10-21T22:58:45.669Z,15.60
2018-10-21T23:01:18.131Z,15.68
2018-10-21T23:03:50.150Z,14.33
2018-10-21T23:06:21.929Z,15.35
2018-10-21T23:08:54.586Z,14.98
2018-10-21T23:11:26.320Z,14.38
2018-10-21T23:13:57.942Z,15.45
2018-10-21T23:16:30.280Z,15.03
2018-10-21T23:19:11.519Z,14.63
2018-10-21T23:21:43.539Z,14.13
2018-10-21T23:24:15.197Z,15.05
2018-10-21T23:26:47.320Z,15.23
2018-10-21T23:29:19.457Z,22.70
2018-10-21T23:31:51.358Z,15.75
2018-10-21T23:34:23.199Z,14.87
2018-10-21T23:36:54.777Z,15.00
2018-10-21T23:39:26.919Z,15.08
2018-10-21T23:41:59.203Z,15.20
2018-10-21T23:44:31.858Z,16.57
2018-10-21T23:47:03.917Z,16.20
2018-10-21T23:49:35.363Z,15.43
2018-10-21T23:52:07.921Z,15.03
2018-10-21T23:54:40.116Z,15.20
2018-10-21T23:57:12.316Z,16.37
2018-10-21T23:59:44.236Z,15.32
